sensor_id;sensor_type;location;lat;lon;timestamp;P1;durP1;ratioP1;P2;durP2;ratioP2
23410;SDS011;11878;51.774;7.220;2022-09-28T00:01:14;5.53;;;3.77;;
23410;SDS011;11878;51.774;7.220;2022-09-28T00:04:18;7.40;;;3.70;;
23410;SDS011;11878;51.774;7.220;2022-09-28T00:07:20;6.17;;;3.43;;
23410;SDS011;11878;51.774;7.220;2022-09-28T00:10:22;6.80;;;3.87;;
23410;SDS011;11878;51.774;7.220;2022-09-28T00:13:23;5.53;;;3.57;;
23410;SDS011;11878;51.774;7.220;2022-09-28T00:16:26;5.13;;;3.43;;
23410;SDS011;11878;51.774;7.220;2022-09-28T00:19:33;5.97;;;3.53;;
23410;SDS011;11878;51.774;7.220;2022-09-28T00:22:34;5.80;;;4.03;;
23410;SDS011;11878;51.774;7.220;2022-09-28T00:25:36;7.60;;;3.37;;
23410;SDS011;11878;51.774;7.220;2022-09-28T00:28:38;7.57;;;4.20;;
23410;SDS011;11878;51.774;7.220;2022-09-28T00:31:40;4.27;;;3.27;;
23410;SDS011;11878;51.774;7.220;2022-09-28T00:34:42;5.83;;;4.00;;
23410;SDS011;11878;51.774;7.220;2022-09-28T00:37:49;6.67;;;3.80;;
23410;SDS011;11878;51.774;7.220;2022-09-28T00:40:51;5.23;;;2.83;;
23410;SDS011;11878;51.774;7.220;2022-09-28T00:43:53;6.63;;;3.57;;
23410;SDS011;11878;51.774;7.220;2022-09-28T00:47:34;6.00;;;3.83;;
23410;SDS011;11878;51.774;7.220;2022-09-28T00:50:38;6.53;;;3.50;;
23410;SDS011;11878;51.774;7.220;2022-09-28T00:53:40;6.93;;;3.57;;
23410;SDS011;11878;51.774;7.220;2022-09-28T00:56:44;5.93;;;3.90;;
23410;SDS011;11878;51.774;7.220;2022-09-28T00:59:48;7.67;;;4.20;;
23410;SDS011;11878;51.774;7.220;2022-09-28T01:02:51;7.83;;;3.80;;
23410;SDS011;11878;51.774;7.220;2022-09-28T01:05:54;8.27;;;4.30;;
23410;SDS011;11878;51.774;7.220;2022-09-28T01:09:00;9.27;;;4.17;;
23410;SDS011;11878;51.774;7.220;2022-09-28T01:12:04;9.73;;;4.40;;
23410;SDS011;11878;51.774;7.220;2022-09-28T01:15:06;6.73;;;3.97;;
23410;SDS011;11878;51.774;7.220;2022-09-28T01:18:13;8.13;;;4.73;;
23410;SDS011;11878;51.774;7.220;2022-09-28T01:21:20;7.50;;;4.20;;
23410;SDS011;11878;51.774;7.220;2022-09-28T01:27:41;9.13;;;4.43;;
23410;SDS011;11878;51.774;7.220;2022-09-28T01:34:11;7.47;;;4.53;;
23410;SDS011;11878;51.774;7.220;2022-09-28T01:37:18;7.00;;;4.70;;
23410;SDS011;11878;51.774;7.220;2022-09-28T01:40:21;7.43;;;4.50;;
23410;SDS011;11878;51.774;7.220;2022-09-28T01:43:26;7.10;;;4.53;;
23410;SDS011;11878;51.774;7.220;2022-09-28T01:46:31;8.23;;;4.70;;
23410;SDS011;11878;51.774;7.220;2022-09-28T01:49:45;8.77;;;5.40;;
23410;SDS011;11878;51.774;7.220;2022-09-28T01:53:26;8.83;;;4.90;;
23410;SDS011;11878;51.774;7.220;2022-09-28T01:56:27;9.87;;;5.60;;
23410;SDS011;11878;51.774;7.220;2022-09-28T01:59:32;8.10;;;5.60;;
23410;SDS011;11878;51.774;7.220;2022-09-28T02:02:42;10.27;;;5.03;;
23410;SDS011;11878;51.774;7.220;2022-09-28T02:06:13;8.17;;;5.50;;
23410;SDS011;11878;51.774;7.220;2022-09-28T02:09:30;10.13;;;5.97;;
23410;SDS011;11878;51.774;7.220;2022-09-28T02:12:53;10.03;;;6.60;;
23410;SDS011;11878;51.774;7.220;2022-09-28T02:16:13;9.23;;;5.70;;
23410;SDS011;11878;51.774;7.220;2022-09-28T02:19:23;7.40;;;4.60;;
23410;SDS011;11878;51.774;7.220;2022-09-28T02:22:28;5.53;;;4.13;;
23410;SDS011;11878;51.774;7.220;2022-09-28T02:25:36;7.00;;;5.30;;
23410;SDS011;11878;51.774;7.220;2022-09-28T02:28:43;8.50;;;3.93;;
23410;SDS011;11878;51.774;7.220;2022-09-28T02:31:45;7.50;;;4.33;;
23410;SDS011;11878;51.774;7.220;2022-09-28T02:34:47;8.93;;;4.87;;
23410;SDS011;11878;51.774;7.220;2022-09-28T02:37:49;7.97;;;4.77;;
23410;SDS011;11878;51.774;7.220;2022-09-28T02:44:23;10.63;;;5.47;;
23410;SDS011;11878;51.774;7.220;2022-09-28T02:54:35;10.10;;;5.70;;
23410;SDS011;11878;51.774;7.220;2022-09-28T03:08:03;10.90;;;6.20;;
23410;SDS011;11878;51.774;7.220;2022-09-28T03:11:22;10.93;;;6.37;;
23410;SDS011;11878;51.774;7.220;2022-09-28T03:14:28;9.47;;;6.57;;
23410;SDS011;11878;51.774;7.220;2022-09-28T03:17:31;11.63;;;6.40;;
23410;SDS011;11878;51.774;7.220;2022-09-28T03:20:32;9.50;;;5.83;;
23410;SDS011;11878;51.774;7.220;2022-09-28T03:23:35;10.47;;;6.47;;
23410;SDS011;11878;51.774;7.220;2022-09-28T03:26:37;10.67;;;6.30;;
23410;SDS011;11878;51.774;7.220;2022-09-28T03:29:39;16.10;;;7.03;;
23410;SDS011;11878;51.774;7.220;2022-09-28T03:32:42;11.03;;;6.27;;
23410;SDS011;11878;51.774;7.220;2022-09-28T03:35:48;11.47;;;7.80;;
23410;SDS011;11878;51.774;7.220;2022-09-28T03:38:51;11.57;;;7.63;;
23410;SDS011;11878;51.774;7.220;2022-09-28T03:41:58;11.80;;;6.60;;
23410;SDS011;11878;51.774;7.220;2022-09-28T03:45:02;11.07;;;7.13;;
23410;SDS011;11878;51.774;7.220;2022-09-28T03:48:04;12.87;;;7.10;;
23410;SDS011;11878;51.774;7.220;2022-09-28T03:51:08;13.37;;;7.33;;
23410;SDS011;11878;51.774;7.220;2022-09-28T03:54:12;10.97;;;7.17;;
23410;SDS011;11878;51.774;7.220;2022-09-28T03:57:13;11.60;;;7.30;;
23410;SDS011;11878;51.774;7.220;2022-09-28T04:00:16;11.40;;;7.23;;
23410;SDS011;11878;51.774;7.220;2022-09-28T04:03:18;10.53;;;6.87;;
23410;SDS011;11878;51.774;7.220;2022-09-28T04:06:22;14.67;;;7.47;;
23410;SDS011;11878;51.774;7.220;2022-09-28T04:09:25;13.87;;;7.90;;
23410;SDS011;11878;51.774;7.220;2022-09-28T04:12:28;13.73;;;6.97;;
23410;SDS011;11878;51.774;7.220;2022-09-28T04:15:29;13.27;;;6.90;;
23410;SDS011;11878;51.774;7.220;2022-09-28T04:18:31;13.67;;;7.40;;
23410;SDS011;11878;51.774;7.220;2022-09-28T04:21:43;10.80;;;7.13;;
23410;SDS011;11878;51.774;7.220;2022-09-28T04:24:47;12.13;;;7.07;;
23410;SDS011;11878;51.774;7.220;2022-09-28T04:27:49;13.13;;;7.53;;
23410;SDS011;11878;51.774;7.220;2022-09-28T04:31:10;13.27;;;6.93;;
23410;SDS011;11878;51.774;7.220;2022-09-28T04:34:19;11.80;;;6.80;;
23410;SDS011;11878;51.774;7.220;2022-09-28T04:37:22;12.90;;;7.13;;
23410;SDS011;11878;51.774;7.220;2022-09-28T04:40:24;13.40;;;6.50;;
23410;SDS011;11878;51.774;7.220;2022-09-28T04:43:26;13.47;;;7.03;;
23410;SDS011;11878;51.774;7.220;2022-09-28T04:46:28;12.17;;;7.37;;
23410;SDS011;11878;51.774;7.220;2022-09-28T04:50:09;11.03;;;6.80;;
23410;SDS011;11878;51.774;7.220;2022-09-28T04:53:31;10.80;;;6.83;;
23410;SDS011;11878;51.774;7.220;2022-09-28T04:56:32;11.80;;;7.67;;
23410;SDS011;11878;51.774;7.220;2022-09-28T04:59:34;11.47;;;7.17;;
23410;SDS011;11878;51.774;7.220;2022-09-28T05:02:38;11.40;;;6.17;;
23410;SDS011;11878;51.774;7.220;2022-09-28T05:06:18;10.43;;;6.37;;
23410;SDS011;11878;51.774;7.220;2022-09-28T05:09:21;11.07;;;7.23;;
23410;SDS011;11878;51.774;7.220;2022-09-28T05:12:25;12.83;;;7.63;;
23410;SDS011;11878;51.774;7.220;2022-09-28T05:15:27;14.20;;;7.67;;
23410;SDS011;11878;51.774;7.220;2022-09-28T05:18:28;15.83;;;8.87;;
23410;SDS011;11878;51.774;7.220;2022-09-28T05:21:35;13.47;;;8.50;;
23410;SDS011;11878;51.774;7.220;2022-09-28T05:24:37;19.43;;;8.37;;
23410;SDS011;11878;51.774;7.220;2022-09-28T05:27:39;15.07;;;8.13;;
23410;SDS011;11878;51.774;7.220;2022-09-28T05:31:02;15.60;;;7.80;;
23410;SDS011;11878;51.774;7.220;2022-09-28T05:34:24;16.10;;;9.60;;
23410;SDS011;11878;51.774;7.220;2022-09-28T05:37:27;13.97;;;8.57;;
23410;SDS011;11878;51.774;7.220;2022-09-28T05:40:30;12.63;;;8.63;;
23410;SDS011;11878;51.774;7.220;2022-09-28T05:43:32;16.90;;;9.43;;
23410;SDS011;11878;51.774;7.220;2022-09-28T05:46:37;12.00;;;8.23;;
23410;SDS011;11878;51.774;7.220;2022-09-28T05:49:39;13.60;;;8.40;;
23410;SDS011;11878;51.774;7.220;2022-09-28T05:52:41;17.83;;;9.47;;
23410;SDS011;11878;51.774;7.220;2022-09-28T05:55:44;18.23;;;8.90;;
23410;SDS011;11878;51.774;7.220;2022-09-28T05:58:46;21.43;;;9.03;;
23410;SDS011;11878;51.774;7.220;2022-09-28T06:01:51;15.47;;;9.07;;
23410;SDS011;11878;51.774;7.220;2022-09-28T06:04:52;15.80;;;8.87;;
23410;SDS011;11878;51.774;7.220;2022-09-28T06:07:56;15.50;;;8.80;;
23410;SDS011;11878;51.774;7.220;2022-09-28T06:10:59;18.00;;;8.60;;
23410;SDS011;11878;51.774;7.220;2022-09-28T06:14:02;13.57;;;8.77;;
23410;SDS011;11878;51.774;7.220;2022-09-28T06:17:05;14.10;;;8.77;;
23410;SDS011;11878;51.774;7.220;2022-09-28T06:20:08;14.27;;;8.37;;
23410;SDS011;11878;51.774;7.220;2022-09-28T06:23:40;16.90;;;9.50;;
23410;SDS011;11878;51.774;7.220;2022-09-28T06:26:48;18.63;;;9.80;;
23410;SDS011;11878;51.774;7.220;2022-09-28T06:29:52;16.43;;;10.10;;
23410;SDS011;11878;51.774;7.220;2022-09-28T06:32:54;18.53;;;10.03;;
23410;SDS011;11878;51.774;7.220;2022-09-28T06:35:57;21.70;;;11.40;;
23410;SDS011;11878;51.774;7.220;2022-09-28T06:39:00;19.13;;;10.43;;
23410;SDS011;11878;51.774;7.220;2022-09-28T06:42:02;18.63;;;9.67;;
23410;SDS011;11878;51.774;7.220;2022-09-28T06:45:24;17.17;;;10.03;;
23410;SDS011;11878;51.774;7.220;2022-09-28T06:48:57;20.93;;;11.03;;
23410;SDS011;11878;51.774;7.220;2022-09-28T06:52:17;20.10;;;10.77;;
23410;SDS011;11878;51.774;7.220;2022-09-28T06:55:45;21.10;;;11.27;;
23410;SDS011;11878;51.774;7.220;2022-09-28T06:58:51;18.97;;;11.70;;
23410;SDS011;11878;51.774;7.220;2022-09-28T07:01:52;18.30;;;11.03;;
23410;SDS011;11878;51.774;7.220;2022-09-28T07:05:13;19.37;;;10.60;;
23410;SDS011;11878;51.774;7.220;2022-09-28T07:08:32;21.73;;;10.87;;
23410;SDS011;11878;51.774;7.220;2022-09-28T07:11:57;17.60;;;11.13;;
23410;SDS011;11878;51.774;7.220;2022-09-28T07:15:19;20.20;;;11.33;;
23410;SDS011;11878;51.774;7.220;2022-09-28T07:18:21;20.23;;;11.43;;
23410;SDS011;11878;51.774;7.220;2022-09-28T07:21:26;18.87;;;11.00;;
23410;SDS011;11878;51.774;7.220;2022-09-28T07:24:34;21.33;;;11.60;;
23410;SDS011;11878;51.774;7.220;2022-09-28T07:28:08;18.83;;;10.00;;
23410;SDS011;11878;51.774;7.220;2022-09-28T07:31:39;21.27;;;10.63;;
23410;SDS011;11878;51.774;7.220;2022-09-28T07:35:11;17.83;;;10.80;;
23410;SDS011;11878;51.774;7.220;2022-09-28T07:38:20;17.97;;;11.30;;
23410;SDS011;11878;51.774;7.220;2022-09-28T07:41:22;21.23;;;10.93;;
23410;SDS011;11878;51.774;7.220;2022-09-28T07:44:33;18.17;;;11.17;;
23410;SDS011;11878;51.774;7.220;2022-09-28T07:47:35;19.97;;;11.70;;
23410;SDS011;11878;51.774;7.220;2022-09-28T07:50:53;22.87;;;11.53;;
23410;SDS011;11878;51.774;7.220;2022-09-28T07:54:28;17.00;;;10.77;;
23410;SDS011;11878;51.774;7.220;2022-09-28T07:57:53;22.87;;;13.10;;
23410;SDS011;11878;51.774;7.220;2022-09-28T08:01:19;23.37;;;15.00;;
23410;SDS011;11878;51.774;7.220;2022-09-28T08:04:23;20.00;;;12.40;;
23410;SDS011;11878;51.774;7.220;2022-09-28T08:07:25;22.33;;;10.97;;
23410;SDS011;11878;51.774;7.220;2022-09-28T08:10:36;20.03;;;11.37;;
23410;SDS011;11878;51.774;7.220;2022-09-28T08:14:04;20.83;;;11.17;;
23410;SDS011;11878;51.774;7.220;2022-09-28T08:17:25;32.77;;;17.30;;
23410;SDS011;11878;51.774;7.220;2022-09-28T08:20:30;17.97;;;11.20;;
23410;SDS011;11878;51.774;7.220;2022-09-28T08:23:52;20.37;;;11.60;;
23410;SDS011;11878;51.774;7.220;2022-09-28T08:26:54;18.60;;;10.33;;
23410;SDS011;11878;51.774;7.220;2022-09-28T08:30:01;16.27;;;10.33;;
23410;SDS011;11878;51.774;7.220;2022-09-28T08:33:29;16.53;;;9.93;;
23410;SDS011;11878;51.774;7.220;2022-09-28T08:36:50;18.57;;;9.17;;
23410;SDS011;11878;51.774;7.220;2022-09-28T08:40:19;17.27;;;10.07;;
23410;SDS011;11878;51.774;7.220;2022-09-28T08:43:45;12.40;;;8.43;;
23410;SDS011;11878;51.774;7.220;2022-09-28T08:47:01;17.17;;;10.03;;
23410;SDS011;11878;51.774;7.220;2022-09-28T08:50:32;18.47;;;10.13;;
23410;SDS011;11878;51.774;7.220;2022-09-28T08:57:18;15.57;;;9.13;;
23410;SDS011;11878;51.774;7.220;2022-09-28T09:00:32;20.83;;;10.30;;
23410;SDS011;11878;51.774;7.220;2022-09-28T09:03:40;14.13;;;9.53;;
23410;SDS011;11878;51.774;7.220;2022-09-28T09:17:04;12.50;;;8.43;;
23410;SDS011;11878;51.774;7.220;2022-09-28T09:23:54;13.83;;;7.17;;
23410;SDS011;11878;51.774;7.220;2022-09-28T09:30:51;13.63;;;7.00;;
23410;SDS011;11878;51.774;7.220;2022-09-28T09:37:57;11.30;;;6.60;;
23410;SDS011;11878;51.774;7.220;2022-09-28T09:48:48;16.63;;;6.07;;
23410;SDS011;11878;51.774;7.220;2022-09-28T09:52:04;10.80;;;5.67;;
23410;SDS011;11878;51.774;7.220;2022-09-28T09:55:20;9.33;;;5.97;;
23410;SDS011;11878;51.774;7.220;2022-09-28T09:58:49;10.77;;;6.27;;
23410;SDS011;11878;51.774;7.220;2022-09-28T10:02:01;8.87;;;5.10;;
23410;SDS011;11878;51.774;7.220;2022-09-28T10:05:25;7.73;;;4.00;;
23410;SDS011;11878;51.774;7.220;2022-09-28T10:08:32;6.40;;;3.73;;
23410;SDS011;11878;51.774;7.220;2022-09-28T10:11:42;6.47;;;4.17;;
23410;SDS011;11878;51.774;7.220;2022-09-28T10:14:47;5.43;;;3.80;;
23410;SDS011;11878;51.774;7.220;2022-09-28T10:17:51;5.73;;;4.07;;
23410;SDS011;11878;51.774;7.220;2022-09-28T10:21:34;5.53;;;3.50;;
23410;SDS011;11878;51.774;7.220;2022-09-28T10:24:49;5.20;;;3.27;;
23410;SDS011;11878;51.774;7.220;2022-09-28T10:27:57;4.80;;;3.23;;
23410;SDS011;11878;51.774;7.220;2022-09-28T10:31:20;6.53;;;4.10;;
23410;SDS011;11878;51.774;7.220;2022-09-28T10:34:45;6.23;;;3.53;;
23410;SDS011;11878;51.774;7.220;2022-09-28T10:37:54;5.03;;;2.70;;
23410;SDS011;11878;51.774;7.220;2022-09-28T10:41:11;7.80;;;3.33;;
23410;SDS011;11878;51.774;7.220;2022-09-28T10:44:33;6.80;;;3.30;;
23410;SDS011;11878;51.774;7.220;2022-09-28T10:47:52;5.87;;;3.17;;
23410;SDS011;11878;51.774;7.220;2022-09-28T10:50:56;4.63;;;2.60;;
23410;SDS011;11878;51.774;7.220;2022-09-28T10:54:01;3.93;;;2.90;;
23410;SDS011;11878;51.774;7.220;2022-09-28T10:57:27;4.57;;;2.73;;
23410;SDS011;11878;51.774;7.220;2022-09-28T11:00:39;5.10;;;2.33;;
23410;SDS011;11878;51.774;7.220;2022-09-28T11:03:57;2.77;;;2.10;;
23410;SDS011;11878;51.774;7.220;2022-09-28T11:07:03;3.87;;;2.43;;
23410;SDS011;11878;51.774;7.220;2022-09-28T11:10:21;5.43;;;2.17;;
23410;SDS011;11878;51.774;7.220;2022-09-28T11:13:30;3.60;;;1.60;;
23410;SDS011;11878;51.774;7.220;2022-09-28T11:16:40;2.23;;;1.73;;
23410;SDS011;11878;51.774;7.220;2022-09-28T11:19:44;2.90;;;1.60;;
23410;SDS011;11878;51.774;7.220;2022-09-28T11:22:46;16.23;;;7.53;;
23410;SDS011;11878;51.774;7.220;2022-09-28T11:26:02;2.60;;;1.60;;
23410;SDS011;11878;51.774;7.220;2022-09-28T11:29:17;2.13;;;1.30;;
23410;SDS011;11878;51.774;7.220;2022-09-28T11:33:43;3.00;;;1.40;;
23410;SDS011;11878;51.774;7.220;2022-09-28T11:37:00;1.60;;;1.10;;
23410;SDS011;11878;51.774;7.220;2022-09-28T11:47:44;2.27;;;1.23;;
23410;SDS011;11878;51.774;7.220;2022-09-28T11:50:58;2.30;;;1.13;;
23410;SDS011;11878;51.774;7.220;2022-09-28T11:54:09;2.50;;;1.93;;
23410;SDS011;11878;51.774;7.220;2022-09-28T11:57:37;2.03;;;1.23;;
23410;SDS011;11878;51.774;7.220;2022-09-28T12:00:46;1.90;;;1.07;;
23410;SDS011;11878;51.774;7.220;2022-09-28T12:04:08;11.67;;;4.27;;
23410;SDS011;11878;51.774;7.220;2022-09-28T12:07:29;2.07;;;0.87;;
23410;SDS011;11878;51.774;7.220;2022-09-28T12:10:45;7.17;;;4.00;;
23410;SDS011;11878;51.774;7.220;2022-09-28T12:14:26;4.33;;;1.90;;
23410;SDS011;11878;51.774;7.220;2022-09-28T12:17:39;3.90;;;1.10;;
23410;SDS011;11878;51.774;7.220;2022-09-28T12:20:46;2.73;;;1.07;;
23410;SDS011;11878;51.774;7.220;2022-09-28T12:23:52;2.73;;;1.50;;
23410;SDS011;11878;51.774;7.220;2022-09-28T12:26:58;1.87;;;1.30;;
23410;SDS011;11878;51.774;7.220;2022-09-28T12:30:04;2.90;;;1.60;;
23410;SDS011;11878;51.774;7.220;2022-09-28T12:33:12;2.30;;;1.03;;
23410;SDS011;11878;51.774;7.220;2022-09-28T12:39:40;3.73;;;1.70;;
23410;SDS011;11878;51.774;7.220;2022-09-28T12:43:11;3.20;;;1.00;;
23410;SDS011;11878;51.774;7.220;2022-09-28T12:46:44;2.70;;;1.10;;
23410;SDS011;11878;51.774;7.220;2022-09-28T13:00:41;3.30;;;1.00;;
23410;SDS011;11878;51.774;7.220;2022-09-28T13:03:57;1.37;;;0.90;;
23410;SDS011;11878;51.774;7.220;2022-09-28T13:07:08;2.00;;;0.93;;
23410;SDS011;11878;51.774;7.220;2022-09-28T13:10:30;0.90;;;0.70;;
23410;SDS011;11878;51.774;7.220;2022-09-28T13:17:16;1.53;;;0.90;;
23410;SDS011;11878;51.774;7.220;2022-09-28T13:23:52;1.87;;;1.23;;
23410;SDS011;11878;51.774;7.220;2022-09-28T13:27:33;5.43;;;1.77;;
23410;SDS011;11878;51.774;7.220;2022-09-28T13:30:38;3.40;;;1.30;;
23410;SDS011;11878;51.774;7.220;2022-09-28T13:33:42;1.87;;;1.20;;
23410;SDS011;11878;51.774;7.220;2022-09-28T13:36:45;2.57;;;1.63;;
23410;SDS011;11878;51.774;7.220;2022-09-28T13:40:32;6.50;;;1.57;;
23410;SDS011;11878;51.774;7.220;2022-09-28T13:47:16;2.20;;;1.43;;
23410;SDS011;11878;51.774;7.220;2022-09-28T13:54:11;1.67;;;1.20;;
23410;SDS011;11878;51.774;7.220;2022-09-28T13:57:40;2.50;;;1.10;;
23410;SDS011;11878;51.774;7.220;2022-09-28T14:00:48;2.57;;;1.00;;
23410;SDS011;11878;51.774;7.220;2022-09-28T14:10:54;4.10;;;1.53;;
23410;SDS011;11878;51.774;7.220;2022-09-28T14:20:25;3.00;;;0.80;;
23410;SDS011;11878;51.774;7.220;2022-09-28T14:33:15;2.77;;;1.07;;
23410;SDS011;11878;51.774;7.220;2022-09-28T14:36:36;1.97;;;1.30;;
23410;SDS011;11878;51.774;7.220;2022-09-28T14:40:07;1.37;;;0.90;;
23410;SDS011;11878;51.774;7.220;2022-09-28T14:43:57;2.67;;;1.13;;
23410;SDS011;11878;51.774;7.220;2022-09-28T14:50:33;2.43;;;0.90;;
23410;SDS011;11878;51.774;7.220;2022-09-28T14:53:37;4.00;;;1.10;;
23410;SDS011;11878;51.774;7.220;2022-09-28T14:56:42;2.93;;;1.20;;
23410;SDS011;11878;51.774;7.220;2022-09-28T14:59:53;2.07;;;0.80;;
23410;SDS011;11878;51.774;7.220;2022-09-28T15:03:01;3.17;;;0.90;;
23410;SDS011;11878;51.774;7.220;2022-09-28T15:06:13;2.53;;;1.20;;
23410;SDS011;11878;51.774;7.220;2022-09-28T15:09:28;1.10;;;1.00;;
23410;SDS011;11878;51.774;7.220;2022-09-28T15:12:34;1.60;;;1.10;;
23410;SDS011;11878;51.774;7.220;2022-09-28T15:15:36;2.77;;;1.40;;
23410;SDS011;11878;51.774;7.220;2022-09-28T15:22:19;2.83;;;1.30;;
23410;SDS011;11878;51.774;7.220;2022-09-28T15:25:21;2.20;;;0.80;;
23410;SDS011;11878;51.774;7.220;2022-09-28T15:28:27;2.50;;;0.80;;
23410;SDS011;11878;51.774;7.220;2022-09-28T15:31:33;1.57;;;0.90;;
23410;SDS011;11878;51.774;7.220;2022-09-28T15:34:36;2.00;;;1.10;;
23410;SDS011;11878;51.774;7.220;2022-09-28T15:37:54;2.37;;;1.10;;
23410;SDS011;11878;51.774;7.220;2022-09-28T15:40:56;4.37;;;1.27;;
23410;SDS011;11878;51.774;7.220;2022-09-28T15:47:13;4.63;;;1.20;;
23410;SDS011;11878;51.774;7.220;2022-09-28T15:50:20;4.57;;;2.00;;
23410;SDS011;11878;51.774;7.220;2022-09-28T15:53:28;2.97;;;1.30;;
23410;SDS011;11878;51.774;7.220;2022-09-28T15:56:31;3.30;;;1.17;;
23410;SDS011;11878;51.774;7.220;2022-09-28T15:59:52;4.60;;;2.07;;
23410;SDS011;11878;51.774;7.220;2022-09-28T16:02:58;4.50;;;1.53;;
23410;SDS011;11878;51.774;7.220;2022-09-28T16:09:18;3.10;;;1.50;;
23410;SDS011;11878;51.774;7.220;2022-09-28T16:12:51;4.43;;;1.97;;
23410;SDS011;11878;51.774;7.220;2022-09-28T16:15:58;2.93;;;1.50;;
23410;SDS011;11878;51.774;7.220;2022-09-28T16:19:01;3.80;;;1.50;;
23410;SDS011;11878;51.774;7.220;2022-09-28T16:22:04;4.80;;;1.80;;
23410;SDS011;11878;51.774;7.220;2022-09-28T16:25:21;2.53;;;1.60;;
23410;SDS011;11878;51.774;7.220;2022-09-28T16:31:38;4.23;;;1.30;;
23410;SDS011;11878;51.774;7.220;2022-09-28T16:34:43;1.97;;;1.10;;
23410;SDS011;11878;51.774;7.220;2022-09-28T16:37:46;2.23;;;1.40;;
23410;SDS011;11878;51.774;7.220;2022-09-28T16:40:54;5.30;;;2.00;;
23410;SDS011;11878;51.774;7.220;2022-09-28T16:44:00;4.20;;;1.07;;
23410;SDS011;11878;51.774;7.220;2022-09-28T16:47:02;9.37;;;2.23;;
23410;SDS011;11878;51.774;7.220;2022-09-28T16:50:04;1.80;;;1.00;;
23410;SDS011;11878;51.774;7.220;2022-09-28T16:53:13;2.37;;;1.00;;
23410;SDS011;11878;51.774;7.220;2022-09-28T16:56:35;1.10;;;0.97;;
23410;SDS011;11878;51.774;7.220;2022-09-28T16:59:37;2.70;;;0.90;;
23410;SDS011;11878;51.774;7.220;2022-09-28T17:02:39;1.50;;;1.00;;
23410;SDS011;11878;51.774;7.220;2022-09-28T17:05:47;1.63;;;1.00;;
23410;SDS011;11878;51.774;7.220;2022-09-28T17:08:50;0.97;;;0.73;;
23410;SDS011;11878;51.774;7.220;2022-09-28T17:11:51;2.03;;;0.97;;
23410;SDS011;11878;51.774;7.220;2022-09-28T17:14:56;0.87;;;0.70;;
23410;SDS011;11878;51.774;7.220;2022-09-28T17:17:58;3.97;;;0.80;;
23410;SDS011;11878;51.774;7.220;2022-09-28T17:21:01;1.20;;;0.77;;
23410;SDS011;11878;51.774;7.220;2022-09-28T17:24:04;1.13;;;0.80;;
23410;SDS011;11878;51.774;7.220;2022-09-28T17:27:06;1.60;;;0.93;;
23410;SDS011;11878;51.774;7.220;2022-09-28T17:30:14;3.23;;;1.37;;
23410;SDS011;11878;51.774;7.220;2022-09-28T17:33:16;3.63;;;1.20;;
23410;SDS011;11878;51.774;7.220;2022-09-28T17:36:18;1.67;;;1.20;;
23410;SDS011;11878;51.774;7.220;2022-09-28T17:39:20;2.23;;;1.30;;
23410;SDS011;11878;51.774;7.220;2022-09-28T17:42:25;2.13;;;1.40;;
23410;SDS011;11878;51.774;7.220;2022-09-28T17:45:26;2.53;;;0.90;;
23410;SDS011;11878;51.774;7.220;2022-09-28T17:48:29;1.30;;;0.67;;
23410;SDS011;11878;51.774;7.220;2022-09-28T17:51:33;3.97;;;0.90;;
23410;SDS011;11878;51.774;7.220;2022-09-28T17:54:37;1.83;;;0.70;;
23410;SDS011;11878;51.774;7.220;2022-09-28T17:57:39;3.83;;;1.40;;
23410;SDS011;11878;51.774;7.220;2022-09-28T18:00:41;2.20;;;0.57;;
23410;SDS011;11878;51.774;7.220;2022-09-28T18:03:44;0.50;;;0.40;;
23410;SDS011;11878;51.774;7.220;2022-09-28T18:06:46;3.40;;;0.50;;
23410;SDS011;11878;51.774;7.220;2022-09-28T18:09:51;3.40;;;0.90;;
23410;SDS011;11878;51.774;7.220;2022-09-28T18:12:56;1.53;;;0.80;;
23410;SDS011;11878;51.774;7.220;2022-09-28T18:15:58;0.83;;;0.50;;
23410;SDS011;11878;51.774;7.220;2022-09-28T18:19:00;0.83;;;0.60;;
23410;SDS011;11878;51.774;7.220;2022-09-28T18:22:02;2.97;;;1.00;;
23410;SDS011;11878;51.774;7.220;2022-09-28T18:25:04;4.53;;;0.83;;
23410;SDS011;11878;51.774;7.220;2022-09-28T18:28:06;7.37;;;3.67;;
23410;SDS011;11878;51.774;7.220;2022-09-28T18:31:09;5.07;;;2.87;;
23410;SDS011;11878;51.774;7.220;2022-09-28T18:34:11;9.17;;;4.43;;
23410;SDS011;11878;51.774;7.220;2022-09-28T18:37:13;3.63;;;2.17;;
23410;SDS011;11878;51.774;7.220;2022-09-28T18:40:15;4.23;;;2.77;;
23410;SDS011;11878;51.774;7.220;2022-09-28T18:43:17;2.00;;;1.10;;
23410;SDS011;11878;51.774;7.220;2022-09-28T18:46:19;2.77;;;1.13;;
23410;SDS011;11878;51.774;7.220;2022-09-28T18:49:21;2.40;;;1.73;;
23410;SDS011;11878;51.774;7.220;2022-09-28T18:52:24;7.00;;;3.00;;
23410;SDS011;11878;51.774;7.220;2022-09-28T18:55:26;2.20;;;1.60;;
23410;SDS011;11878;51.774;7.220;2022-09-28T18:58:28;2.00;;;1.40;;
23410;SDS011;11878;51.774;7.220;2022-09-28T19:01:34;5.70;;;2.20;;
23410;SDS011;11878;51.774;7.220;2022-09-28T19:04:39;3.57;;;1.90;;
23410;SDS011;11878;51.774;7.220;2022-09-28T19:07:41;4.20;;;2.00;;
23410;SDS011;11878;51.774;7.220;2022-09-28T19:10:43;6.10;;;2.70;;
23410;SDS011;11878;51.774;7.220;2022-09-28T19:13:48;4.30;;;3.07;;
23410;SDS011;11878;51.774;7.220;2022-09-28T19:16:51;9.00;;;3.37;;
23410;SDS011;11878;51.774;7.220;2022-09-28T19:19:52;8.23;;;3.50;;
23410;SDS011;11878;51.774;7.220;2022-09-28T19:22:54;6.47;;;3.40;;
23410;SDS011;11878;51.774;7.220;2022-09-28T19:25:56;6.83;;;3.80;;
23410;SDS011;11878;51.774;7.220;2022-09-28T19:29:00;6.73;;;3.53;;
23410;SDS011;11878;51.774;7.220;2022-09-28T19:32:03;6.27;;;3.93;;
23410;SDS011;11878;51.774;7.220;2022-09-28T19:35:04;11.80;;;3.93;;
23410;SDS011;11878;51.774;7.220;2022-09-28T19:38:06;9.57;;;5.20;;
23410;SDS011;11878;51.774;7.220;2022-09-28T19:41:18;10.53;;;4.27;;
23410;SDS011;11878;51.774;7.220;2022-09-28T19:44:43;11.63;;;5.07;;
23410;SDS011;11878;51.774;7.220;2022-09-28T19:47:47;8.93;;;4.07;;
23410;SDS011;11878;51.774;7.220;2022-09-28T19:50:53;5.17;;;2.93;;
23410;SDS011;11878;51.774;7.220;2022-09-28T19:54:05;3.47;;;1.90;;
23410;SDS011;11878;51.774;7.220;2022-09-28T19:57:07;6.63;;;2.07;;
23410;SDS011;11878;51.774;7.220;2022-09-28T20:00:09;4.30;;;2.00;;
23410;SDS011;11878;51.774;7.220;2022-09-28T20:03:11;4.73;;;2.00;;
23410;SDS011;11878;51.774;7.220;2022-09-28T20:06:13;2.70;;;1.40;;
23410;SDS011;11878;51.774;7.220;2022-09-28T20:09:17;5.03;;;2.10;;
23410;SDS011;11878;51.774;7.220;2022-09-28T20:12:19;3.80;;;1.73;;
23410;SDS011;11878;51.774;7.220;2022-09-28T20:15:22;3.07;;;1.80;;
23410;SDS011;11878;51.774;7.220;2022-09-28T20:18:23;5.33;;;2.47;;
23410;SDS011;11878;51.774;7.220;2022-09-28T20:21:27;4.67;;;2.70;;
23410;SDS011;11878;51.774;7.220;2022-09-28T20:24:30;5.23;;;3.47;;
23410;SDS011;11878;51.774;7.220;2022-09-28T20:27:32;5.60;;;2.90;;
23410;SDS011;11878;51.774;7.220;2022-09-28T20:30:34;5.50;;;2.73;;
23410;SDS011;11878;51.774;7.220;2022-09-28T20:33:37;5.80;;;2.97;;
23410;SDS011;11878;51.774;7.220;2022-09-28T20:36:39;8.50;;;3.10;;
23410;SDS011;11878;51.774;7.220;2022-09-28T20:39:42;8.30;;;3.20;;
23410;SDS011;11878;51.774;7.220;2022-09-28T20:42:45;5.50;;;2.80;;
23410;SDS011;11878;51.774;7.220;2022-09-28T20:45:47;5.77;;;3.57;;
23410;SDS011;11878;51.774;7.220;2022-09-28T20:48:50;5.07;;;2.73;;
23410;SDS011;11878;51.774;7.220;2022-09-28T20:51:55;7.50;;;3.10;;
23410;SDS011;11878;51.774;7.220;2022-09-28T20:54:56;8.23;;;4.37;;
23410;SDS011;11878;51.774;7.220;2022-09-28T20:58:00;7.43;;;3.83;;
23410;SDS011;11878;51.774;7.220;2022-09-28T21:04:08;16.03;;;3.97;;
23410;SDS011;11878;51.774;7.220;2022-09-28T21:07:10;5.33;;;2.90;;
23410;SDS011;11878;51.774;7.220;2022-09-28T21:10:12;4.80;;;2.93;;